sensor_id;sensor_type;location;lat;lon;timestamp;temperature;humidity
52513;DHT22;38422;53.172;6.974;2023-08-20T00:00:54;18.50;99.90
52513;DHT22;38422;53.172;6.974;2023-08-20T00:03:20;18.50;99.90
52513;DHT22;38422;53.172;6.974;2023-08-20T00:05:46;18.50;99.90
52513;DHT22;38422;53.172;6.974;2023-08-20T00:08:12;18.50;99.90
52513;DHT22;38422;53.172;6.974;2023-08-20T00:10:37;18.40;99.90
52513;DHT22;38422;53.172;6.974;2023-08-20T00:13:03;18.40;99.90
52513;DHT22;38422;53.172;6.974;2023-08-20T00:15:30;18.40;99.90
52513;DHT22;38422;53.172;6.974;2023-08-20T00:17:56;18.40;99.90
52513;DHT22;38422;53.172;6.974;2023-08-20T00:20:22;18.40;99.90
52513;DHT22;38422;53.172;6.974;2023-08-20T00:22:48;18.40;99.90
52513;DHT22;38422;53.172;6.974;2023-08-20T00:25:16;18.40;99.90
52513;DHT22;38422;53.172;6.974;2023-08-20T00:27:42;18.30;99.90
52513;DHT22;38422;53.172;6.974;2023-08-20T00:30:09;18.30;99.90
52513;DHT22;38422;53.172;6.974;2023-08-20T00:32:36;18.30;99.90
52513;DHT22;38422;53.172;6.974;2023-08-20T00:35:03;18.30;99.90
52513;DHT22;38422;53.172;6.974;2023-08-20T00:37:30;18.30;99.90
52513;DHT22;38422;53.172;6.974;2023-08-20T00:39:56;18.30;99.90
52513;DHT22;38422;53.172;6.974;2023-08-20T00:42:23;18.20;99.90
52513;DHT22;38422;53.172;6.974;2023-08-20T00:44:53;18.20;99.90
52513;DHT22;38422;53.172;6.974;2023-08-20T00:47:20;18.20;99.90
52513;DHT22;38422;53.172;6.974;2023-08-20T00:49:46;18.20;99.90
52513;DHT22;38422;53.172;6.974;2023-08-20T00:52:14;18.20;99.90
52513;DHT22;38422;53.172;6.974;2023-08-20T00:54:40;18.20;99.90
52513;DHT22;38422;53.172;6.974;2023-08-20T00:57:07;18.20;99.90
52513;DHT22;38422;53.172;6.974;2023-08-20T00:59:34;18.20;99.90
52513;DHT22;38422;53.172;6.974;2023-08-20T01:02:00;18.10;99.90
52513;DHT22;38422;53.172;6.974;2023-08-20T01:04:27;18.10;99.90
52513;DHT22;38422;53.172;6.974;2023-08-20T01:07:24;18.10;99.90
52513;DHT22;38422;53.172;6.974;2023-08-20T01:12:36;18.10;99.90
52513;DHT22;38422;53.172;6.974;2023-08-20T01:15:04;18.10;99.90
52513;DHT22;38422;53.172;6.974;2023-08-20T01:17:36;18.10;99.90
52513;DHT22;38422;53.172;6.974;2023-08-20T01:20:02;18.10;99.90
52513;DHT22;38422;53.172;6.974;2023-08-20T01:28:31;18.00;99.90
52513;DHT22;38422;53.172;6.974;2023-08-20T01:30:39;17.90;99.90
52513;DHT22;38422;53.172;6.974;2023-08-20T01:33:05;17.90;99.90
52513;DHT22;38422;53.172;6.974;2023-08-20T01:35:32;17.90;99.90
52513;DHT22;38422;53.172;6.974;2023-08-20T01:37:58;17.80;99.90
52513;DHT22;38422;53.172;6.974;2023-08-20T01:40:24;17.80;99.90
52513;DHT22;38422;53.172;6.974;2023-08-20T01:42:49;17.80;99.90
52513;DHT22;38422;53.172;6.974;2023-08-20T01:45:15;17.80;99.90
52513;DHT22;38422;53.172;6.974;2023-08-20T01:47:41;17.70;99.90
52513;DHT22;38422;53.172;6.974;2023-08-20T01:50:07;17.70;99.90
52513;DHT22;38422;53.172;6.974;2023-08-20T01:52:32;17.70;99.90
52513;DHT22;38422;53.172;6.974;2023-08-20T01:54:58;17.70;99.90
52513;DHT22;38422;53.172;6.974;2023-08-20T01:57:24;17.70;99.90
52513;DHT22;38422;53.172;6.974;2023-08-20T01:59:50;17.70;99.90
52513;DHT22;38422;53.172;6.974;2023-08-20T02:02:15;17.60;99.90
52513;DHT22;38422;53.172;6.974;2023-08-20T02:04:41;17.60;99.90
52513;DHT22;38422;53.172;6.974;2023-08-20T02:07:07;17.60;99.90
52513;DHT22;38422;53.172;6.974;2023-08-20T02:09:32;17.60;99.90
52513;DHT22;38422;53.172;6.974;2023-08-20T02:11:58;17.60;99.90
52513;DHT22;38422;53.172;6.974;2023-08-20T02:14:24;17.50;99.90
52513;DHT22;38422;53.172;6.974;2023-08-20T02:16:50;17.50;99.90
52513;DHT22;38422;53.172;6.974;2023-08-20T02:19:16;17.50;99.90
52513;DHT22;38422;53.172;6.974;2023-08-20T02:21:42;17.40;99.90
52513;DHT22;38422;53.172;6.974;2023-08-20T02:24:07;17.50;99.90
52513;DHT22;38422;53.172;6.974;2023-08-20T02:26:33;17.40;99.90
52513;DHT22;38422;53.172;6.974;2023-08-20T02:28:59;17.40;99.90
52513;DHT22;38422;53.172;6.974;2023-08-20T02:31:25;17.40;99.90
52513;DHT22;38422;53.172;6.974;2023-08-20T02:33:50;17.40;99.90
52513;DHT22;38422;53.172;6.974;2023-08-20T02:36:16;17.40;99.90
52513;DHT22;38422;53.172;6.974;2023-08-20T02:38:41;17.40;99.90
52513;DHT22;38422;53.172;6.974;2023-08-20T02:41:07;17.50;99.90
52513;DHT22;38422;53.172;6.974;2023-08-20T02:43:33;17.50;99.90
52513;DHT22;38422;53.172;6.974;2023-08-20T02:45:58;17.40;99.90
52513;DHT22;38422;53.172;6.974;2023-08-20T02:48:24;17.40;99.90
52513;DHT22;38422;53.172;6.974;2023-08-20T02:50:54;17.40;99.90
52513;DHT22;38422;53.172;6.974;2023-08-20T02:53:20;17.40;99.90
52513;DHT22;38422;53.172;6.974;2023-08-20T02:55:46;17.30;99.90
52513;DHT22;38422;53.172;6.974;2023-08-20T02:58:12;17.30;99.90
52513;DHT22;38422;53.172;6.974;2023-08-20T03:00:38;17.30;99.90
52513;DHT22;38422;53.172;6.974;2023-08-20T03:03:04;17.30;99.90
52513;DHT22;38422;53.172;6.974;2023-08-20T03:05:32;17.30;99.90
52513;DHT22;38422;53.172;6.974;2023-08-20T03:07:58;17.30;99.90
52513;DHT22;38422;53.172;6.974;2023-08-20T03:10:24;17.30;99.90
52513;DHT22;38422;53.172;6.974;2023-08-20T03:12:49;17.30;99.90
52513;DHT22;38422;53.172;6.974;2023-08-20T03:15:15;17.30;99.90
52513;DHT22;38422;53.172;6.974;2023-08-20T03:17:41;17.30;99.90
52513;DHT22;38422;53.172;6.974;2023-08-20T03:20:07;17.30;99.90
52513;DHT22;38422;53.172;6.974;2023-08-20T03:22:36;17.30;99.90
52513;DHT22;38422;53.172;6.974;2023-08-20T03:25:02;17.30;99.90
52513;DHT22;38422;53.172;6.974;2023-08-20T03:27:27;17.30;99.90
52513;DHT22;38422;53.172;6.974;2023-08-20T03:29:53;17.30;99.90
52513;DHT22;38422;53.172;6.974;2023-08-20T03:32:19;17.20;99.90
52513;DHT22;38422;53.172;6.974;2023-08-20T03:34:44;17.20;99.90
52513;DHT22;38422;53.172;6.974;2023-08-20T03:37:10;17.20;99.90
52513;DHT22;38422;53.172;6.974;2023-08-20T03:39:36;17.20;99.90
52513;DHT22;38422;53.172;6.974;2023-08-20T03:42:01;17.20;99.90
52513;DHT22;38422;53.172;6.974;2023-08-20T03:44:27;17.20;99.90
52513;DHT22;38422;53.172;6.974;2023-08-20T03:46:54;17.20;99.90
52513;DHT22;38422;53.172;6.974;2023-08-20T03:49:20;17.20;99.90
52513;DHT22;38422;53.172;6.974;2023-08-20T03:51:46;17.20;99.90
52513;DHT22;38422;53.172;6.974;2023-08-20T03:54:11;17.20;99.90
52513;DHT22;38422;53.172;6.974;2023-08-20T03:56:37;17.20;99.90
52513;DHT22;38422;53.172;6.974;2023-08-20T03:59:03;17.10;99.90
52513;DHT22;38422;53.172;6.974;2023-08-20T04:01:28;17.10;99.90
52513;DHT22;38422;53.172;6.974;2023-08-20T04:03:54;17.10;99.90
52513;DHT22;38422;53.172;6.974;2023-08-20T04:06:20;17.10;99.90
52513;DHT22;38422;53.172;6.974;2023-08-20T04:08:45;17.10;99.90
52513;DHT22;38422;53.172;6.974;2023-08-20T04:11:11;17.10;99.90
52513;DHT22;38422;53.172;6.974;2023-08-20T04:13:37;17.10;99.90
52513;DHT22;38422;53.172;6.974;2023-08-20T04:16:03;17.10;99.90
52513;DHT22;38422;53.172;6.974;2023-08-20T04:18:28;17.10;99.90
52513;DHT22;38422;53.172;6.974;2023-08-20T04:20:54;17.10;99.90
52513;DHT22;38422;53.172;6.974;2023-08-20T04:23:21;17.10;99.90
52513;DHT22;38422;53.172;6.974;2023-08-20T04:25:46;17.00;99.90
52513;DHT22;38422;53.172;6.974;2023-08-20T04:28:12;17.00;99.90
52513;DHT22;38422;53.172;6.974;2023-08-20T04:30:38;17.00;99.90
52513;DHT22;38422;53.172;6.974;2023-08-20T04:33:04;17.00;99.90
52513;DHT22;38422;53.172;6.974;2023-08-20T04:35:30;17.00;99.90
52513;DHT22;38422;53.172;6.974;2023-08-20T04:37:56;17.00;99.90
52513;DHT22;38422;53.172;6.974;2023-08-20T04:40:22;17.00;99.90
52513;DHT22;38422;53.172;6.974;2023-08-20T04:42:48;17.00;99.90
52513;DHT22;38422;53.172;6.974;2023-08-20T04:45:14;16.90;99.90
52513;DHT22;38422;53.172;6.974;2023-08-20T04:47:40;16.90;99.90
52513;DHT22;38422;53.172;6.974;2023-08-20T04:50:05;16.90;99.90
52513;DHT22;38422;53.172;6.974;2023-08-20T04:52:32;16.90;99.90
52513;DHT22;38422;53.172;6.974;2023-08-20T04:54:59;16.90;99.90
52513;DHT22;38422;53.172;6.974;2023-08-20T04:57:25;16.80;99.90
52513;DHT22;38422;53.172;6.974;2023-08-20T04:59:50;16.80;99.90
52513;DHT22;38422;53.172;6.974;2023-08-20T05:02:16;16.80;99.90
52513;DHT22;38422;53.172;6.974;2023-08-20T05:04:42;16.80;99.90
52513;DHT22;38422;53.172;6.974;2023-08-20T05:07:07;16.80;99.90
52513;DHT22;38422;53.172;6.974;2023-08-20T05:09:33;16.70;99.90
52513;DHT22;38422;53.172;6.974;2023-08-20T05:11:59;16.70;99.90
52513;DHT22;38422;53.172;6.974;2023-08-20T05:14:25;16.70;99.90
52513;DHT22;38422;53.172;6.974;2023-08-20T05:16:50;16.80;99.90
52513;DHT22;38422;53.172;6.974;2023-08-20T05:19:16;16.70;99.90
52513;DHT22;38422;53.172;6.974;2023-08-20T05:21:42;16.70;99.90
52513;DHT22;38422;53.172;6.974;2023-08-20T05:24:08;16.80;99.90
52513;DHT22;38422;53.172;6.974;2023-08-20T05:26:34;16.80;99.90
52513;DHT22;38422;53.172;6.974;2023-08-20T05:29:00;16.80;99.90
52513;DHT22;38422;53.172;6.974;2023-08-20T05:31:25;16.80;99.90
52513;DHT22;38422;53.172;6.974;2023-08-20T05:33:51;16.90;99.90
52513;DHT22;38422;53.172;6.974;2023-08-20T05:36:17;16.90;99.90
52513;DHT22;38422;53.172;6.974;2023-08-20T05:38:43;16.90;99.90
52513;DHT22;38422;53.172;6.974;2023-08-20T05:41:09;16.90;99.90
52513;DHT22;38422;53.172;6.974;2023-08-20T05:43:35;16.90;99.90
52513;DHT22;38422;53.172;6.974;2023-08-20T05:46:02;16.90;99.90
52513;DHT22;38422;53.172;6.974;2023-08-20T05:48:28;16.90;99.90
52513;DHT22;38422;53.172;6.974;2023-08-20T05:50:54;16.90;99.90
52513;DHT22;38422;53.172;6.974;2023-08-20T05:53:21;17.00;99.90
52513;DHT22;38422;53.172;6.974;2023-08-20T05:55:47;17.00;99.90
52513;DHT22;38422;53.172;6.974;2023-08-20T05:58:13;17.00;99.90
52513;DHT22;38422;53.172;6.974;2023-08-20T06:00:38;17.00;99.90
52513;DHT22;38422;53.172;6.974;2023-08-20T06:03:04;17.10;99.90
52513;DHT22;38422;53.172;6.974;2023-08-20T06:05:30;17.10;99.90
52513;DHT22;38422;53.172;6.974;2023-08-20T06:07:56;17.10;99.90
52513;DHT22;38422;53.172;6.974;2023-08-20T06:10:21;17.20;99.90
52513;DHT22;38422;53.172;6.974;2023-08-20T06:12:47;17.20;99.90
52513;DHT22;38422;53.172;6.974;2023-08-20T06:15:14;17.20;99.90
52513;DHT22;38422;53.172;6.974;2023-08-20T06:17:40;17.20;99.90
52513;DHT22;38422;53.172;6.974;2023-08-20T06:20:06;17.20;99.90
52513;DHT22;38422;53.172;6.974;2023-08-20T06:22:34;17.30;99.90
52513;DHT22;38422;53.172;6.974;2023-08-20T06:25:00;17.30;99.90
52513;DHT22;38422;53.172;6.974;2023-08-20T06:27:26;17.40;99.90
52513;DHT22;38422;53.172;6.974;2023-08-20T06:29:51;17.40;99.90
52513;DHT22;38422;53.172;6.974;2023-08-20T06:32:17;17.50;99.90
52513;DHT22;38422;53.172;6.974;2023-08-20T06:34:43;17.60;99.90
52513;DHT22;38422;53.172;6.974;2023-08-20T06:37:08;17.70;99.90
52513;DHT22;38422;53.172;6.974;2023-08-20T06:39:34;17.70;99.90
52513;DHT22;38422;53.172;6.974;2023-08-20T06:42:00;17.80;99.90
52513;DHT22;38422;53.172;6.974;2023-08-20T06:44:26;17.90;99.90
52513;DHT22;38422;53.172;6.974;2023-08-20T06:46:51;17.90;99.90
52513;DHT22;38422;53.172;6.974;2023-08-20T06:49:17;18.00;99.90
52513;DHT22;38422;53.172;6.974;2023-08-20T06:51:43;18.00;99.90
52513;DHT22;38422;53.172;6.974;2023-08-20T06:54:08;18.10;99.90
52513;DHT22;38422;53.172;6.974;2023-08-20T06:56:35;18.10;99.90
52513;DHT22;38422;53.172;6.974;2023-08-20T06:59:01;18.20;99.90
52513;DHT22;38422;53.172;6.974;2023-08-20T07:01:28;18.20;99.90
52513;DHT22;38422;53.172;6.974;2023-08-20T07:03:54;18.30;99.90
52513;DHT22;38422;53.172;6.974;2023-08-20T07:06:20;18.30;99.90
52513;DHT22;38422;53.172;6.974;2023-08-20T07:08:46;18.40;99.90
52513;DHT22;38422;53.172;6.974;2023-08-20T07:11:11;18.40;99.90
52513;DHT22;38422;53.172;6.974;2023-08-20T07:13:37;18.50;99.90
52513;DHT22;38422;53.172;6.974;2023-08-20T07:16:03;18.50;99.90
52513;DHT22;38422;53.172;6.974;2023-08-20T07:18:32;18.60;99.90
52513;DHT22;38422;53.172;6.974;2023-08-20T07:20:58;18.70;99.90
52513;DHT22;38422;53.172;6.974;2023-08-20T07:23:25;18.70;99.90
52513;DHT22;38422;53.172;6.974;2023-08-20T07:25:51;18.80;99.90
52513;DHT22;38422;53.172;6.974;2023-08-20T07:28:19;18.80;99.90
52513;DHT22;38422;53.172;6.974;2023-08-20T07:31:05;18.90;99.90
52513;DHT22;38422;53.172;6.974;2023-08-20T07:33:30;19.00;99.90
52513;DHT22;38422;53.172;6.974;2023-08-20T07:35:56;19.00;99.90
52513;DHT22;38422;53.172;6.974;2023-08-20T07:38:22;19.10;99.90
52513;DHT22;38422;53.172;6.974;2023-08-20T07:40:47;19.10;99.90
52513;DHT22;38422;53.172;6.974;2023-08-20T07:43:14;19.20;99.90
52513;DHT22;38422;53.172;6.974;2023-08-20T07:45:39;19.30;99.90
52513;DHT22;38422;53.172;6.974;2023-08-20T07:48:05;19.30;99.90
52513;DHT22;38422;53.172;6.974;2023-08-20T07:50:31;19.40;99.90
52513;DHT22;38422;53.172;6.974;2023-08-20T07:52:57;19.40;99.90
52513;DHT22;38422;53.172;6.974;2023-08-20T07:55:22;19.50;99.90
52513;DHT22;38422;53.172;6.974;2023-08-20T07:57:48;19.60;99.90
52513;DHT22;38422;53.172;6.974;2023-08-20T08:00:15;19.60;99.90
52513;DHT22;38422;53.172;6.974;2023-08-20T08:02:41;19.70;99.90
52513;DHT22;38422;53.172;6.974;2023-08-20T08:05:07;19.70;99.90
52513;DHT22;38422;53.172;6.974;2023-08-20T08:07:33;19.80;99.90
52513;DHT22;38422;53.172;6.974;2023-08-20T08:10:02;19.80;99.90
52513;DHT22;38422;53.172;6.974;2023-08-20T08:12:28;19.90;99.90
52513;DHT22;38422;53.172;6.974;2023-08-20T08:14:54;20.00;99.90
52513;DHT22;38422;53.172;6.974;2023-08-20T08:17:19;20.00;99.90
52513;DHT22;38422;53.172;6.974;2023-08-20T08:19:45;20.10;99.90
52513;DHT22;38422;53.172;6.974;2023-08-20T08:22:11;20.20;99.90
52513;DHT22;38422;53.172;6.974;2023-08-20T08:24:37;20.20;99.90
52513;DHT22;38422;53.172;6.974;2023-08-20T08:27:02;20.30;99.90
52513;DHT22;38422;53.172;6.974;2023-08-20T08:29:28;20.40;99.90
52513;DHT22;38422;53.172;6.974;2023-08-20T08:31:54;20.50;99.90
52513;DHT22;38422;53.172;6.974;2023-08-20T08:34:19;20.50;99.90
52513;DHT22;38422;53.172;6.974;2023-08-20T08:36:46;20.60;99.90
52513;DHT22;38422;53.172;6.974;2023-08-20T08:39:12;20.70;99.90
52513;DHT22;38422;53.172;6.974;2023-08-20T08:41:38;20.70;99.90
52513;DHT22;38422;53.172;6.974;2023-08-20T08:44:10;20.80;99.90
52513;DHT22;38422;53.172;6.974;2023-08-20T08:46:36;20.90;99.90
52513;DHT22;38422;53.172;6.974;2023-08-20T08:49:06;21.00;99.90
52513;DHT22;38422;53.172;6.974;2023-08-20T08:51:34;21.10;99.90
52513;DHT22;38422;53.172;6.974;2023-08-20T08:54:02;21.10;99.90
52513;DHT22;38422;53.172;6.974;2023-08-20T08:56:28;21.20;99.90
52513;DHT22;38422;53.172;6.974;2023-08-20T08:58:54;21.30;99.90
52513;DHT22;38422;53.172;6.974;2023-08-20T09:01:20;21.40;99.90
52513;DHT22;38422;53.172;6.974;2023-08-20T09:03:47;21.40;99.90
52513;DHT22;38422;53.172;6.974;2023-08-20T09:06:13;21.50;99.90
52513;DHT22;38422;53.172;6.974;2023-08-20T09:08:38;21.60;99.90
52513;DHT22;38422;53.172;6.974;2023-08-20T09:11:04;21.70;99.90
52513;DHT22;38422;53.172;6.974;2023-08-20T09:13:34;21.80;99.90
52513;DHT22;38422;53.172;6.974;2023-08-20T09:16:04;21.90;99.90
52513;DHT22;38422;53.172;6.974;2023-08-20T09:18:30;22.10;99.90
52513;DHT22;38422;53.172;6.974;2023-08-20T09:20:57;22.20;99.90
52513;DHT22;38422;53.172;6.974;2023-08-20T09:23:22;22.30;99.90
52513;DHT22;38422;53.172;6.974;2023-08-20T09:25:48;22.40;99.90
52513;DHT22;38422;53.172;6.974;2023-08-20T09:28:14;22.50;99.90
52513;DHT22;38422;53.172;6.974;2023-08-20T09:30:40;22.50;99.90
52513;DHT22;38422;53.172;6.974;2023-08-20T09:33:19;22.70;99.90
52513;DHT22;38422;53.172;6.974;2023-08-20T09:35:51;22.80;99.90
52513;DHT22;38422;53.172;6.974;2023-08-20T09:38:20;22.90;99.90
52513;DHT22;38422;53.172;6.974;2023-08-20T09:40:50;23.00;99.90
52513;DHT22;38422;53.172;6.974;2023-08-20T09:43:18;23.20;99.90
52513;DHT22;38422;53.172;6.974;2023-08-20T09:45:46;23.40;99.90
52513;DHT22;38422;53.172;6.974;2023-08-20T09:48:17;23.60;99.90
52513;DHT22;38422;53.172;6.974;2023-08-20T09:50:43;23.80;99.90
52513;DHT22;38422;53.172;6.974;2023-08-20T09:53:34;24.00;99.90
52513;DHT22;38422;53.172;6.974;2023-08-20T09:56:10;24.20;99.90
52513;DHT22;38422;53.172;6.974;2023-08-20T09:58:38;24.30;99.90
52513;DHT22;38422;53.172;6.974;2023-08-20T10:01:04;24.40;99.90
52513;DHT22;38422;53.172;6.974;2023-08-20T10:03:30;24.50;99.90
52513;DHT22;38422;53.172;6.974;2023-08-20T10:05:57;24.70;99.90
52513;DHT22;38422;53.172;6.974;2023-08-20T10:08:24;24.90;99.90
52513;DHT22;38422;53.172;6.974;2023-08-20T10:10:50;25.10;99.90
52513;DHT22;38422;53.172;6.974;2023-08-20T10:13:17;25.20;99.90
52513;DHT22;38422;53.172;6.974;2023-08-20T10:15:43;25.30;99.90
52513;DHT22;38422;53.172;6.974;2023-08-20T10:18:10;25.50;99.90
52513;DHT22;38422;53.172;6.974;2023-08-20T10:20:38;25.70;99.90
52513;DHT22;38422;53.172;6.974;2023-08-20T10:23:04;25.90;99.90
52513;DHT22;38422;53.172;6.974;2023-08-20T10:25:30;25.90;99.90
52513;DHT22;38422;53.172;6.974;2023-08-20T10:28:13;25.80;99.90
52513;DHT22;38422;53.172;6.974;2023-08-20T10:31:05;25.70;99.90
52513;DHT22;38422;53.172;6.974;2023-08-20T10:33:34;25.70;99.90
52513;DHT22;38422;53.172;6.974;2023-08-20T10:36:17;25.80;99.90
52513;DHT22;38422;53.172;6.974;2023-08-20T10:38:45;25.80;99.90
52513;DHT22;38422;53.172;6.974;2023-08-20T10:41:11;25.80;99.90
52513;DHT22;38422;53.172;6.974;2023-08-20T10:43:38;25.80;99.90
52513;DHT22;38422;53.172;6.974;2023-08-20T10:48:32;25.80;99.90
52513;DHT22;38422;53.172;6.974;2023-08-20T10:53:41;26.00;99.90
52513;DHT22;38422;53.172;6.974;2023-08-20T10:56:15;26.20;99.90
52513;DHT22;38422;53.172;6.974;2023-08-20T10:58:46;26.40;99.90
52513;DHT22;38422;53.172;6.974;2023-08-20T11:01:18;26.50;99.90
52513;DHT22;38422;53.172;6.974;2023-08-20T11:03:45;26.80;99.90
52513;DHT22;38422;53.172;6.974;2023-08-20T11:06:11;27.10;99.90
52513;DHT22;38422;53.172;6.974;2023-08-20T11:08:38;27.40;99.90
52513;DHT22;38422;53.172;6.974;2023-08-20T11:11:05;27.60;99.90
52513;DHT22;38422;53.172;6.974;2023-08-20T11:13:32;27.70;99.90
52513;DHT22;38422;53.172;6.974;2023-08-20T11:16:00;27.90;99.90
52513;DHT22;38422;53.172;6.974;2023-08-20T11:18:25;28.10;99.90
52513;DHT22;38422;53.172;6.974;2023-08-20T11:20:51;28.30;99.90
52513;DHT22;38422;53.172;6.974;2023-08-20T11:23:19;28.60;99.90
52513;DHT22;38422;53.172;6.974;2023-08-20T11:25:44;28.80;99.90
52513;DHT22;38422;53.172;6.974;2023-08-20T11:28:10;28.90;99.90
52513;DHT22;38422;53.172;6.974;2023-08-20T11:30:45;29.00;99.80
52513;DHT22;38422;53.172;6.974;2023-08-20T11:33:11;29.10;99.40
52513;DHT22;38422;53.172;6.974;2023-08-20T11:35:37;29.40;99.20
52513;DHT22;38422;53.172;6.974;2023-08-20T11:38:04;29.40;98.60
52513;DHT22;38422;53.172;6.974;2023-08-20T11:40:30;29.50;98.20
52513;DHT22;38422;53.172;6.974;2023-08-20T11:42:56;29.50;96.30
52513;DHT22;38422;53.172;6.974;2023-08-20T11:45:21;29.50;97.50
52513;DHT22;38422;53.172;6.974;2023-08-20T11:47:47;29.50;96.80
52513;DHT22;38422;53.172;6.974;2023-08-20T11:50:13;29.60;96.80
52513;DHT22;38422;53.172;6.974;2023-08-20T11:52:39;29.70;96.40
52513;DHT22;38422;53.172;6.974;2023-08-20T11:55:06;29.80;96.30
52513;DHT22;38422;53.172;6.974;2023-08-20T11:57:32;29.70;95.90
52513;DHT22;38422;53.172;6.974;2023-08-20T12:00:05;29.80;95.90
52513;DHT22;38422;53.172;6.974;2023-08-20T12:02:34;29.70;95.80
52513;DHT22;38422;53.172;6.974;2023-08-20T12:05:00;29.60;95.30
52513;DHT22;38422;53.172;6.974;2023-08-20T12:07:26;29.70;95.60
52513;DHT22;38422;53.172;6.974;2023-08-20T12:09:53;29.60;95.30
52513;DHT22;38422;53.172;6.974;2023-08-20T12:12:19;29.50;95.40
52513;DHT22;38422;53.172;6.974;2023-08-20T12:14:48;29.30;95.10
52513;DHT22;38422;53.172;6.974;2023-08-20T12:17:18;29.30;95.40
52513;DHT22;38422;53.172;6.974;2023-08-20T12:19:45;29.30;95.10
52513;DHT22;38422;53.172;6.974;2023-08-20T12:22:13;29.30;95.00
52513;DHT22;38422;53.172;6.974;2023-08-20T12:24:39;29.10;94.90
52513;DHT22;38422;53.172;6.974;2023-08-20T12:27:08;28.80;95.10
52513;DHT22;38422;53.172;6.974;2023-08-20T12:29:33;28.90;95.20
52513;DHT22;38422;53.172;6.974;2023-08-20T12:31:59;29.00;95.30
52513;DHT22;38422;53.172;6.974;2023-08-20T12:34:25;29.00;94.60
52513;DHT22;38422;53.172;6.974;2023-08-20T12:36:51;28.80;95.20
52513;DHT22;38422;53.172;6.974;2023-08-20T12:39:17;28.90;94.60
52513;DHT22;38422;53.172;6.974;2023-08-20T12:41:42;29.00;94.40
52513;DHT22;38422;53.172;6.974;2023-08-20T12:44:08;28.80;94.20
52513;DHT22;38422;53.172;6.974;2023-08-20T12:46:34;28.60;94.10
52513;DHT22;38422;53.172;6.974;2023-08-20T12:49:00;28.40;94.30
52513;DHT22;38422;53.172;6.974;2023-08-20T12:51:26;28.70;94.40
52513;DHT22;38422;53.172;6.974;2023-08-20T12:53:52;29.10;93.90
52513;DHT22;38422;53.172;6.974;2023-08-20T12:56:18;29.50;93.70
52513;DHT22;38422;53.172;6.974;2023-08-20T12:58:44;29.90;93.50
52513;DHT22;38422;53.172;6.974;2023-08-20T13:01:09;30.30;93.20
52513;DHT22;38422;53.172;6.974;2023-08-20T13:03:35;30.60;92.80
52513;DHT22;38422;53.172;6.974;2023-08-20T13:06:03;30.70;91.90
52513;DHT22;38422;53.172;6.974;2023-08-20T13:08:28;31.00;91.80
52513;DHT22;38422;53.172;6.974;2023-08-20T13:10:57;31.20;91.70
52513;DHT22;38422;53.172;6.974;2023-08-20T13:13:24;31.50;91.10
52513;DHT22;38422;53.172;6.974;2023-08-20T13:15:51;31.40;89.40
52513;DHT22;38422;53.172;6.974;2023-08-20T13:18:18;31.50;90.00
52513;DHT22;38422;53.172;6.974;2023-08-20T13:20:45;31.40;88.70
52513;DHT22;38422;53.172;6.974;2023-08-20T13:23:11;31.50;88.50
52513;DHT22;38422;53.172;6.974;2023-08-20T13:25:37;31.70;88.60
52513;DHT22;38422;53.172;6.974;2023-08-20T13:28:03;31.60;87.30
52513;DHT22;38422;53.172;6.974;2023-08-20T13:30:29;31.50;86.30
52513;DHT22;38422;53.172;6.974;2023-08-20T13:32:55;31.40;86.80
52513;DHT22;38422;53.172;6.974;2023-08-20T13:35:20;31.30;86.50
52513;DHT22;38422;53.172;6.974;2023-08-20T13:37:46;31.50;85.40
52513;DHT22;38422;53.172;6.974;2023-08-20T13:40:12;31.50;85.30
52513;DHT22;38422;53.172;6.974;2023-08-20T13:42:38;31.80;86.00
52513;DHT22;38422;53.172;6.974;2023-08-20T13:45:04;31.90;85.90
52513;DHT22;38422;53.172;6.974;2023-08-20T13:47:29;31.70;85.80
52513;DHT22;38422;53.172;6.974;2023-08-20T13:49:56;31.60;86.00
52513;DHT22;38422;53.172;6.974;2023-08-20T13:52:22;31.70;86.00
52513;DHT22;38422;53.172;6.974;2023-08-20T13:54:48;31.90;87.20
52513;DHT22;38422;53.172;6.974;2023-08-20T13:57:13;32.10;86.60
52513;DHT22;38422;53.172;6.974;2023-08-20T13:59:39;32.30;86.10
52513;DHT22;38422;53.172;6.974;2023-08-20T14:02:07;32.50;85.70
52513;DHT22;38422;53.172;6.974;2023-08-20T14:04:33;32.50;85.50
52513;DHT22;38422;53.172;6.974;2023-08-20T14:06:58;32.20;83.90
52513;DHT22;38422;53.172;6.974;2023-08-20T14:09:24;31.90;84.80
52513;DHT22;38422;53.172;6.974;2023-08-20T14:11:50;32.00;84.80
52513;DHT22;38422;53.172;6.974;2023-08-20T14:14:16;32.10;84.30
52513;DHT22;38422;53.172;6.974;2023-08-20T14:16:42;31.80;83.40
52513;DHT22;38422;53.172;6.974;2023-08-20T14:19:07;31.60;83.00
52513;DHT22;38422;53.172;6.974;2023-08-20T14:21:33;31.50;83.70
52513;DHT22;38422;53.172;6.974;2023-08-20T14:23:59;31.50;83.40
52513;DHT22;38422;53.172;6.974;2023-08-20T14:26:24;31.60;83.90
52513;DHT22;38422;53.172;6.974;2023-08-20T14:28:50;31.80;83.90
52513;DHT22;38422;53.172;6.974;2023-08-20T14:31:16;32.10;83.90
52513;DHT22;38422;53.172;6.974;2023-08-20T14:33:42;32.10;82.50
52513;DHT22;38422;53.172;6.974;2023-08-20T14:36:08;32.30;82.00
52513;DHT22;38422;53.172;6.974;2023-08-20T14:38:34;32.30;81.30
52513;DHT22;38422;53.172;6.974;2023-08-20T14:41:00;32.40;80.80
52513;DHT22;38422;53.172;6.974;2023-08-20T14:43:26;32.20;80.10
52513;DHT22;38422;53.172;6.974;2023-08-20T14:45:52;32.00;80.40
52513;DHT22;38422;53.172;6.974;2023-08-20T14:48:18;31.40;79.80
52513;DHT22;38422;53.172;6.974;2023-08-20T14:50:44;31.00;79.90
52513;DHT22;38422;53.172;6.974;2023-08-20T14:53:10;30.90;80.70
52513;DHT22;38422;53.172;6.974;2023-08-20T14:55:36;31.00;81.30
52513;DHT22;38422;53.172;6.974;2023-08-20T14:58:02;31.30;81.50
52513;DHT22;38422;53.172;6.974;2023-08-20T15:00:32;31.50;80.60
52513;DHT22;38422;53.172;6.974;2023-08-20T15:02:57;31.70;80.30
52513;DHT22;38422;53.172;6.974;2023-08-20T15:05:23;31.90;79.90
52513;DHT22;38422;53.172;6.974;2023-08-20T15:07:49;32.00;80.00
52513;DHT22;38422;53.172;6.974;2023-08-20T15:10:14;31.80;79.40
52513;DHT22;38422;53.172;6.974;2023-08-20T15:12:40;31.70;79.40
52513;DHT22;38422;53.172;6.974;2023-08-20T15:15:07;31.90;79.40
52513;DHT22;38422;53.172;6.974;2023-08-20T15:17:34;32.00;79.30
52513;DHT22;38422;53.172;6.974;2023-08-20T15:20:00;32.20;79.40
52513;DHT22;38422;53.172;6.974;2023-08-20T15:22:26;32.40;79.10
52513;DHT22;38422;53.172;6.974;2023-08-20T15:24:51;32.50;79.10
52513;DHT22;38422;53.172;6.974;2023-08-20T15:27:18;32.40;78.50
52513;DHT22;38422;53.172;6.974;2023-08-20T15:29:44;32.30;77.90
52513;DHT22;38422;53.172;6.974;2023-08-20T15:32:10;32.40;78.50
52513;DHT22;38422;53.172;6.974;2023-08-20T15:34:36;32.50;78.60
52513;DHT22;38422;53.172;6.974;2023-08-20T15:37:02;32.60;79.50
52513;DHT22;38422;53.172;6.974;2023-08-20T15:39:28;32.70;79.30